Terminal Aerodrome Forecast
Issued by NWS

Home | Current Version | Previous Version | Text Only | Print | Product List | Glossary On
Versions: 1 2 3 4 5 6 7 8 9 10 11 12 13 14 15 16 17 18 19 20 21 22 23 24 25 26
000
FTUS46 KPDT 290600 AAA
TAFDLS
TAF AMD
KDLS 290631Z 2907/3006 08009KT P6SM OVC015
      TEMPO 2907/2911 OVC008
     FM291200 09003KT 5SM BR BKN008 OVC020
     FM291900 09005KT P6SM SCT010 BKN035
     FM300100 09005KT 5SM BR SCT008 BKN025=

USA.gov is the U.S. government's official web portal to all federal, state and local government web resources and services.